Time;durP1;ratioP1;P1;durP2;ratioP2;P2;SDS_P1;SDS_P2;PMS_P1;PMS_P2;Temp;Humidity;BMP_temperature;BMP_pressure;BME280_temperature;BME280_humidity;BME280_pressure;Samples;Min_cycle;Max_cycle;Signal;HPM_P1;HPM_P2
2024/03/25 00:01:14;;;;;;;3.40;1.58;;;19.30;59.20;;;;;;5056098;28;20128;-52
2024/03/25 00:03:39;;;;;;;2.72;1.77;;;19.30;59.20;;;;;;5049333;28;20429;-48
2024/03/25 00:06:06;;;;;;;2.70;1.80;;;19.30;59.20;;;;;;5050185;28;20029;-60
2024/03/25 00:08:32;;;;;;;2.38;1.60;;;19.30;59.20;;;;;;5052829;28;20716;-51
2024/03/25 00:10:57;;;;;;;1.70;1.60;;;19.30;59.30;;;;;;5049838;28;20037;-54
2024/03/25 00:13:23;;;;;;;2.00;1.30;;;19.30;59.20;;;;;;5051339;28;20037;-54
2024/03/25 00:15:48;;;;;;;2.28;1.80;;;19.30;59.30;;;;;;5049446;28;20029;-53
2024/03/25 00:18:14;;;;;;;1.42;1.33;;;19.30;59.30;;;;;;5030653;28;20047;-53
2024/03/25 00:20:39;;;;;;;2.35;1.77;;;19.20;59.30;;;;;;5053076;28;20037;-53
2024/03/25 00:23:05;;;;;;;1.75;1.35;;;19.20;59.30;;;;;;5054145;28;20029;-60
2024/03/25 00:25:31;;;;;;;1.70;1.40;;;19.20;59.30;;;;;;5050331;28;20528;-51
2024/03/25 00:27:57;;;;;;;2.35;1.60;;;19.20;59.30;;;;;;5057974;28;20528;-53
2024/03/25 00:30:24;;;;;;;2.10;1.50;;;19.20;59.30;;;;;;5053879;28;20072;-51
2024/03/25 00:32:49;;;;;;;1.77;1.17;;;19.20;59.30;;;;;;5053479;28;20255;-61
2024/03/25 00:35:15;;;;;;;2.47;1.73;;;19.20;59.50;;;;;;5051956;28;20081;-50
2024/03/25 00:37:40;;;;;;;2.45;1.60;;;19.20;59.40;;;;;;5037064;28;20025;-50
2024/03/25 00:40:07;;;;;;;2.47;1.70;;;19.20;59.50;;;;;;5053006;28;20033;-53
2024/03/25 00:42:33;;;;;;;1.88;1.27;;;19.10;59.40;;;;;;5053052;28;20059;-51
2024/03/25 00:44:58;;;;;;;2.33;1.50;;;19.10;59.50;;;;;;5055284;28;20082;-51
2024/03/25 00:47:24;;;;;;;1.75;1.25;;;19.10;59.50;;;;;;5050054;28;20087;-57
2024/03/25 00:49:49;;;;;;;3.28;1.55;;;19.10;59.50;;;;;;5040330;28;20024;-52
2024/03/25 00:52:15;;;;;;;2.50;1.65;;;19.10;59.50;;;;;;5043415;28;20101;-51
2024/03/25 00:54:40;;;;;;;2.58;1.85;;;19.10;59.50;;;;;;5045888;28;20660;-52
2024/03/25 00:57:06;;;;;;;2.70;1.20;;;19.10;59.50;;;;;;5047289;28;20021;-59
2024/03/25 00:59:31;;;;;;;2.38;1.33;;;19.10;59.50;;;;;;5050546;28;20662;-52
2024/03/25 01:01:57;;;;;;;1.65;1.20;;;19.10;59.50;;;;;;5047499;28;20033;-51
2024/03/25 01:04:23;;;;;;;1.25;1.00;;;19.10;59.60;;;;;;5047219;28;20103;-50
2024/03/25 01:06:48;;;;;;;3.05;1.20;;;19.10;59.60;;;;;;5051249;28;20036;-56
2024/03/25 01:09:14;;;;;;;1.98;1.27;;;19.00;59.60;;;;;;5046034;28;20370;-54
2024/03/25 01:11:39;;;;;;;2.20;1.30;;;19.00;59.70;;;;;;5051673;28;20085;-55
2024/03/25 01:14:05;;;;;;;1.25;1.00;;;19.00;59.80;;;;;;5046690;28;20089;-57
2024/03/25 01:16:32;;;;;;;2.38;1.50;;;19.00;59.90;;;;;;5049321;28;20024;-53
2024/03/25 01:18:58;;;;;;;1.35;0.93;;;18.90;59.90;;;;;;5056331;28;20104;-54
2024/03/25 01:21:24;;;;;;;1.23;1.08;;;18.90;60.00;;;;;;5049115;28;20808;-55
2024/03/25 01:23:49;;;;;;;1.80;1.20;;;18.80;60.00;;;;;;5048097;28;20063;-53
2024/03/25 01:26:15;;;;;;;1.45;1.10;;;18.80;60.10;;;;;;5052777;28;20856;-54
2024/03/25 01:28:41;;;;;;;1.67;1.23;;;18.80;60.20;;;;;;5057046;28;20036;-51
2024/03/25 01:31:06;;;;;;;1.33;1.15;;;18.80;60.30;;;;;;5050062;28;20032;-53
2024/03/25 01:33:31;;;;;;;1.33;1.00;;;18.70;60.20;;;;;;5054152;28;20427;-55
2024/03/25 01:35:57;;;;;;;2.10;1.35;;;18.70;60.40;;;;;;5052824;28;20029;-54
2024/03/25 01:38:23;;;;;;;1.50;0.93;;;18.70;60.40;;;;;;5052207;28;21362;-53
2024/03/25 01:40:48;;;;;;;1.70;1.02;;;18.70;60.50;;;;;;5051055;28;20036;-53
2024/03/25 01:43:14;;;;;;;1.70;1.00;;;18.70;60.50;;;;;;5051894;28;20073;-53
2024/03/25 01:45:39;;;;;;;2.40;1.48;;;18.60;60.60;;;;;;5054356;28;20072;-53
2024/03/25 01:48:07;;;;;;;2.05;1.15;;;18.60;60.60;;;;;;5052706;28;20032;-52
2024/03/25 01:50:37;;;;;;;1.60;1.10;;;18.50;60.60;;;;;;5053344;28;20040;-53
2024/03/25 01:53:03;;;;;;;1.40;1.00;;;18.50;60.70;;;;;;5050455;28;20039;-53
2024/03/25 01:55:32;;;;;;;1.92;1.30;;;18.50;60.70;;;;;;5049595;28;20031;-53
2024/03/25 01:57:58;;;;;;;1.35;0.90;;;18.50;60.70;;;;;;5048559;28;20518;-54
2024/03/25 02:00:26;;;;;;;1.77;1.33;;;18.50;60.80;;;;;;5048903;28;21382;-54
2024/03/25 02:02:52;;;;;;;1.15;1.00;;;18.50;60.80;;;;;;5047613;28;20150;-53
2024/03/25 02:05:18;;;;;;;1.35;1.10;;;18.50;60.90;;;;;;5043612;28;20035;-56
2024/03/25 02:07:45;;;;;;;1.25;0.90;;;18.40;61.00;;;;;;5046990;28;20036;-55
2024/03/25 02:10:14;;;;;;;1.30;1.00;;;18.40;61.00;;;;;;5048910;28;20413;-55
2024/03/25 02:12:43;;;;;;;1.23;0.90;;;18.40;60.90;;;;;;5047236;28;20513;-54
2024/03/25 02:15:10;;;;;;;1.10;0.93;;;18.40;61.00;;;;;;5046740;28;20044;-54
2024/03/25 02:17:36;;;;;;;1.23;0.90;;;18.40;61.60;;;;;;5049048;28;20044;-54
2024/03/25 02:20:03;;;;;;;1.38;0.90;;;18.40;61.00;;;;;;5046693;28;20033;-53
2024/03/25 02:22:29;;;;;;;1.50;0.90;;;18.40;60.90;;;;;;5042598;28;20047;-53
2024/03/25 02:24:57;;;;;;;2.03;1.08;;;18.40;60.90;;;;;;5048139;28;20035;-51
2024/03/25 02:27:24;;;;;;;1.20;0.80;;;18.50;60.70;;;;;;5050240;28;20044;-53
2024/03/25 02:29:50;;;;;;;2.72;1.10;;;18.60;60.40;;;;;;5054071;28;20032;-53
2024/03/25 02:32:15;;;;;;;1.50;0.95;;;18.70;60.00;;;;;;5053367;28;20024;-54
2024/03/25 02:34:46;;;;;;;2.15;0.80;;;18.90;59.80;;;;;;5049981;28;20033;-54
2024/03/25 02:37:11;;;;;;;1.13;0.70;;;19.00;59.30;;;;;;5048270;28;20497;-53
2024/03/25 02:39:37;;;;;;;0.90;0.65;;;19.20;59.00;;;;;;5052015;28;20047;-59
2024/03/25 02:42:03;;;;;;;1.13;0.80;;;19.30;58.70;;;;;;5043630;28;20572;-52
2024/03/25 02:44:30;;;;;;;1.13;0.90;;;19.50;58.20;;;;;;5049549;28;20029;-53
2024/03/25 02:46:57;;;;;;;2.33;0.73;;;19.60;57.90;;;;;;5050588;28;20497;-53
2024/03/25 02:49:22;;;;;;;1.17;0.70;;;19.80;57.70;;;;;;5048752;28;20118;-52
2024/03/25 02:51:48;;;;;;;1.48;0.70;;;19.90;57.50;;;;;;5052418;28;20663;-53
2024/03/25 02:54:13;;;;;;;0.93;0.70;;;20.00;57.20;;;;;;5052217;28;20037;-53
2024/03/25 02:56:40;;;;;;;0.90;0.70;;;20.10;57.00;;;;;;5049764;28;20036;-53
2024/03/25 02:59:05;;;;;;;1.35;0.70;;;20.20;56.80;;;;;;5048196;28;20047;-53
2024/03/25 03:01:31;;;;;;;0.93;0.82;;;20.30;56.60;;;;;;5036214;28;20033;-53
2024/03/25 03:03:56;;;;;;;0.93;0.63;;;20.40;56.50;;;;;;5037940;28;20131;-54
2024/03/25 03:06:22;;;;;;;1.15;0.88;;;20.40;56.40;;;;;;5033092;28;20728;-54
2024/03/25 03:08:48;;;;;;;1.27;0.82;;;20.50;56.30;;;;;;5025583;28;20029;-53
2024/03/25 03:11:13;;;;;;;0.80;0.70;;;20.50;56.30;;;;;;5048388;28;20505;-54
2024/03/25 03:13:39;;;;;;;1.10;0.60;;;20.50;56.30;;;;;;5045799;28;20025;-53
2024/03/25 03:16:04;;;;;;;1.48;0.60;;;20.50;56.30;;;;;;5045234;28;20656;-55
2024/03/25 03:18:30;;;;;;;0.98;0.68;;;20.50;56.40;;;;;;5024861;28;20025;-55
2024/03/25 03:20:56;;;;;;;1.00;0.60;;;20.50;56.50;;;;;;5045943;28;20017;-52
2024/03/25 03:23:22;;;;;;;0.70;0.70;;;20.40;56.60;;;;;;5047841;28;20025;-54
2024/03/25 03:25:47;;;;;;;0.93;0.63;;;20.30;56.80;;;;;;5046862;28;20033;-59
2024/03/25 03:28:14;;;;;;;1.13;0.70;;;20.30;57.00;;;;;;5048050;28;20119;-50
2024/03/25 03:30:40;;;;;;;0.88;0.57;;;20.30;57.20;;;;;;5054358;28;20025;-52
2024/03/25 03:33:06;;;;;;;0.75;0.70;;;20.20;57.30;;;;;;5054025;28;20048;-56
2024/03/25 03:35:33;;;;;;;0.57;0.57;;;20.10;57.50;;;;;;5052561;28;20055;-57
2024/03/25 03:37:58;;;;;;;0.68;0.60;;;20.00;57.60;;;;;;5055690;28;20068;-50
2024/03/25 03:40:24;;;;;;;2.10;0.95;;;20.00;57.80;;;;;;5055317;28;20563;-53
2024/03/25 03:42:49;;;;;;;0.80;0.70;;;19.90;57.90;;;;;;5056738;28;20029;-54
2024/03/25 03:45:15;;;;;;;1.15;0.50;;;19.80;58.10;;;;;;5053499;28;20112;-51
2024/03/25 03:47:41;;;;;;;1.02;0.70;;;19.70;58.10;;;;;;5058181;28;20044;-51
2024/03/25 03:50:07;;;;;;;0.90;0.60;;;19.70;58.30;;;;;;5044247;28;20505;-56
2024/03/25 03:52:33;;;;;;;1.35;0.88;;;19.60;58.50;;;;;;5054012;28;20050;-52
2024/03/25 03:54:58;;;;;;;1.02;0.90;;;19.60;58.60;;;;;;5052743;28;20976;-53
2024/03/25 03:57:25;;;;;;;0.90;0.80;;;19.50;58.70;;;;;;5053309;28;20064;-58
2024/03/25 03:59:51;;;;;;;0.70;0.50;;;19.50;58.90;;;;;;5055756;28;20044;-60
2024/03/25 04:02:17;;;;;;;1.27;0.80;;;19.40;58.90;;;;;;5039439;28;20182;-54
2024/03/25 04:04:42;;;;;;;0.73;0.55;;;19.40;59.00;;;;;;5046935;28;20033;-58
2024/03/25 04:07:08;;;;;;;1.05;0.50;;;19.30;59.00;;;;;;5044807;28;20083;-51
2024/03/25 04:09:33;;;;;;;0.90;0.60;;;19.30;59.20;;;;;;5048173;28;20039;-48
2024/03/25 04:12:00;;;;;;;0.45;0.40;;;19.30;59.20;;;;;;5042920;28;20061;-60
2024/03/25 04:14:26;;;;;;;0.65;0.40;;;19.30;59.30;;;;;;5050458;28;20020;-51
2024/03/25 04:16:53;;;;;;;0.57;0.40;;;19.20;59.40;;;;;;5046870;28;20777;-59
2024/03/25 04:19:27;;;;;;;1.00;0.65;;;19.20;59.30;;;;;;5046662;28;20108;-61
2024/03/25 04:21:53;;;;;;;0.75;0.55;;;19.20;59.50;;;;;;5046297;28;20033;-59
2024/03/25 04:24:19;;;;;;;0.95;0.60;;;19.20;59.60;;;;;;5051987;28;20083;-59
2024/03/25 04:26:45;;;;;;;0.52;0.40;;;19.10;59.50;;;;;;5051658;28;20468;-56
2024/03/25 04:29:10;;;;;;;0.40;0.40;;;19.10;59.60;;;;;;5040049;28;20028;-58
2024/03/25 04:31:37;;;;;;;1.13;0.75;;;19.00;59.60;;;;;;5051647;28;20027;-53
2024/03/25 04:34:03;;;;;;;0.60;0.55;;;19.00;59.70;;;;;;5052103;28;20506;-55
2024/03/25 04:36:28;;;;;;;1.02;0.50;;;19.00;59.70;;;;;;5049204;28;20048;-55
2024/03/25 04:38:54;;;;;;;1.13;0.63;;;19.00;59.80;;;;;;5057125;28;20021;-54
2024/03/25 04:41:20;;;;;;;0.93;0.60;;;19.00;59.80;;;;;;5028369;28;20033;-54
2024/03/25 04:43:46;;;;;;;1.02;0.70;;;18.90;59.90;;;;;;5055321;28;20029;-55
2024/03/25 04:46:11;;;;;;;0.50;0.50;;;18.90;59.90;;;;;;5052233;28;20036;-54
2024/03/25 04:48:37;;;;;;;1.05;0.52;;;18.90;60.00;;;;;;5046096;28;20086;-54
2024/03/25 04:51:02;;;;;;;0.70;0.50;;;18.90;60.00;;;;;;5051402;28;20037;-53
2024/03/25 04:53:29;;;;;;;0.80;0.50;;;18.90;60.00;;;;;;5054886;28;20052;-54
2024/03/25 04:55:54;;;;;;;1.20;0.80;;;18.90;60.00;;;;;;5050801;28;20107;-54
2024/03/25 04:58:20;;;;;;;0.55;0.40;;;18.80;60.00;;;;;;5052492;28;20062;-52
2024/03/25 05:00:45;;;;;;;0.85;0.50;;;18.80;60.10;;;;;;5053530;28;20119;-53
2024/03/25 05:03:11;;;;;;;2.22;0.55;;;18.80;60.00;;;;;;5057433;28;20037;-54
2024/03/25 05:05:36;;;;;;;0.82;0.50;;;18.80;60.10;;;;;;5055832;28;20364;-54
2024/03/25 05:08:03;;;;;;;0.50;0.40;;;18.80;60.10;;;;;;5056424;28;20044;-52
2024/03/25 05:10:28;;;;;;;1.38;0.63;;;18.80;60.10;;;;;;5039437;28;20470;-53
2024/03/25 05:12:55;;;;;;;0.75;0.40;;;18.80;60.10;;;;;;5056909;28;20055;-53
2024/03/25 05:15:21;;;;;;;0.68;0.68;;;18.70;60.10;;;;;;5053312;28;20129;-56
2024/03/25 05:17:46;;;;;;;0.75;0.52;;;18.70;60.10;;;;;;5053390;28;20112;-55
2024/03/25 05:20:12;;;;;;;1.30;0.60;;;18.80;60.20;;;;;;5053476;28;20508;-54
2024/03/25 05:22:37;;;;;;;0.70;0.40;;;18.70;60.10;;;;;;5055493;28;20036;-54
2024/03/25 05:25:03;;;;;;;1.10;0.50;;;18.70;60.20;;;;;;5053438;28;20062;-54
2024/03/25 05:27:28;;;;;;;0.50;0.40;;;18.70;60.20;;;;;;5057591;28;20037;-52
2024/03/25 05:29:54;;;;;;;0.40;0.40;;;18.70;60.20;;;;;;5051082;28;20037;-51
2024/03/25 05:32:21;;;;;;;1.20;0.55;;;18.70;60.20;;;;;;5056853;28;20031;-54
2024/03/25 05:34:48;;;;;;;3.17;0.95;;;18.70;60.20;;;;;;5053873;28;20029;-56
2024/03/25 05:37:13;;;;;;;0.50;0.40;;;18.70;60.20;;;;;;5057597;28;20051;-54
2024/03/25 05:39:39;;;;;;;0.70;0.50;;;18.70;60.20;;;;;;5029862;28;20123;-51
2024/03/25 05:42:04;;;;;;;0.55;0.50;;;18.70;60.30;;;;;;5041644;28;20108;-53
2024/03/25 05:44:30;;;;;;;0.63;0.40;;;18.60;60.20;;;;;;5030406;28;20091;-51
2024/03/25 05:46:55;;;;;;;0.50;0.50;;;18.60;60.20;;;;;;5052554;28;20430;-51
2024/03/25 05:49:21;;;;;;;1.02;0.60;;;18.60;60.20;;;;;;5047649;28;20446;-52
2024/03/25 05:51:47;;;;;;;1.35;0.60;;;18.60;60.20;;;;;;5054037;28;20037;-55
2024/03/25 05:54:13;;;;;;;0.55;0.50;;;18.60;60.30;;;;;;5048741;28;20024;-52
2024/03/25 05:56:38;;;;;;;0.68;0.55;;;18.60;60.30;;;;;;5057297;28;20616;-54
2024/03/25 05:59:04;;;;;;;0.80;0.52;;;18.60;60.30;;;;;;5049754;28;20082;-54
2024/03/25 06:01:29;;;;;;;0.70;0.50;;;18.60;60.20;;;;;;5057213;28;20540;-56
2024/03/25 06:03:55;;;;;;;1.02;0.73;;;18.60;60.20;;;;;;5051037;28;20040;-54
2024/03/25 06:06:20;;;;;;;0.93;0.40;;;18.60;60.20;;;;;;5057116;28;20477;-53
2024/03/25 06:08:46;;;;;;;1.15;0.60;;;18.60;60.20;;;;;;5053050;28;20033;-53
2024/03/25 06:11:11;;;;;;;1.13;0.55;;;18.60;60.20;;;;;;5053191;28;20028;-54
2024/03/25 06:13:37;;;;;;;0.63;0.43;;;18.60;60.00;;;;;;5052907;28;20033;-54
2024/03/25 06:16:03;;;;;;;1.65;0.52;;;18.70;60.00;;;;;;5051421;28;20098;-56
2024/03/25 06:18:28;;;;;;;0.95;0.40;;;18.70;59.70;;;;;;5051250;28;20048;-53
2024/03/25 06:20:54;;;;;;;1.13;0.50;;;18.80;59.70;;;;;;5052229;28;20115;-53
2024/03/25 06:23:26;;;;;;;1.70;0.57;;;18.80;59.60;;;;;;5052871;28;20028;-53
2024/03/25 06:25:53;;;;;;;0.55;0.45;;;18.80;59.40;;;;;;5052181;28;20029;-51
2024/03/25 06:28:20;;;;;;;0.93;0.50;;;18.90;59.40;;;;;;5033969;28;20059;-53
2024/03/25 06:36:18;;;;;;;0.85;0.40;;;19.10;59.10;;;;;;5049451;28;20035;-53
2024/03/25 06:38:43;;;;;;;0.63;0.40;;;19.10;58.90;;;;;;5046937;28;20140;-54
2024/03/25 06:41:09;;;;;;;1.33;0.68;;;19.20;58.90;;;;;;5045087;28;20119;-56
2024/03/25 06:43:35;;;;;;;0.70;0.40;;;19.20;58.70;;;;;;5054310;28;20036;-53
2024/03/25 06:46:01;;;;;;;0.60;0.40;;;19.20;58.70;;;;;;5051304;28;20041;-54
2024/03/25 06:48:28;;;;;;;1.23;0.50;;;19.30;58.60;;;;;;5047570;28;20078;-53
2024/03/25 06:50:57;;;;;;;1.30;0.60;;;19.30;58.50;;;;;;5030520;28;20029;-52
2024/03/25 06:53:23;;;;;;;1.90;0.60;;;19.30;58.40;;;;;;5049114;28;20032;-52
2024/03/25 06:55:54;;;;;;;0.95;0.45;;;19.40;58.30;;;;;;5042765;28;20494;-56
2024/03/25 06:58:21;;;;;;;0.90;0.50;;;19.40;58.30;;;;;;5047918;28;20029;-53
2024/03/25 07:00:46;;;;;;;0.60;0.50;;;19.40;58.30;;;;;;5052816;28;20040;-53
2024/03/25 07:03:12;;;;;;;2.85;0.95;;;19.40;58.20;;;;;;5048444;28;20489;-52
2024/03/25 07:05:37;;;;;;;0.60;0.50;;;19.40;58.20;;;;;;5050497;28;20037;-54
2024/03/25 07:08:03;;;;;;;1.15;0.65;;;19.50;58.20;;;;;;5050650;28;20440;-57
2024/03/25 07:10:29;;;;;;;1.27;0.55;;;19.50;58.30;;;;;;5053246;28;20029;-53
2024/03/25 07:12:54;;;;;;;1.00;0.60;;;19.50;58.30;;;;;;5045161;28;20036;-54
2024/03/25 07:15:20;;;;;;;1.17;0.70;;;19.50;58.20;;;;;;5053116;28;20078;-53
2024/03/25 07:17:45;;;;;;;1.35;0.70;;;19.50;58.30;;;;;;5050740;28;20075;-52
2024/03/25 07:20:11;;;;;;;2.47;0.70;;;19.50;58.30;;;;;;5049958;28;20036;-52
2024/03/25 07:22:36;;;;;;;1.33;0.88;;;19.50;58.30;;;;;;5051989;28;20043;-55
2024/03/25 07:25:02;;;;;;;0.88;0.47;;;19.50;58.20;;;;;;5051636;28;20048;-52
2024/03/25 07:27:27;;;;;;;1.38;0.73;;;19.50;58.30;;;;;;5048202;28;20037;-53
2024/03/25 07:29:52;;;;;;;2.60;0.90;;;19.50;58.30;;;;;;5051759;28;20418;-54
2024/03/25 07:32:18;;;;;;;2.38;1.35;;;19.50;58.30;;;;;;5049590;28;20025;-51
2024/03/25 07:34:43;;;;;;;4.05;1.85;;;19.40;58.20;;;;;;5052951;28;20033;-54
2024/03/25 07:37:09;;;;;;;4.65;1.58;;;19.50;58.20;;;;;;5047700;28;20136;-55
2024/03/25 07:39:34;;;;;;;3.38;2.38;;;19.50;58.30;;;;;;5053435;28;20036;-52
2024/03/25 07:42:00;;;;;;;4.15;2.85;;;19.50;58.30;;;;;;5053982;28;20436;-52
2024/03/25 07:44:25;;;;;;;6.40;3.38;;;19.40;58.30;;;;;;5051001;28;20048;-51
2024/03/25 07:46:51;;;;;;;4.35;2.80;;;19.40;58.40;;;;;;5050146;28;20029;-53
2024/03/25 07:49:17;;;;;;;7.70;2.65;;;19.40;58.30;;;;;;5053038;28;20028;-53
2024/03/25 07:51:42;;;;;;;7.10;2.83;;;19.30;58.60;;;;;;5039941;28;20161;-54
2024/03/25 07:54:10;;;;;;;6.80;3.10;;;19.30;58.00;;;;;;5031283;28;20040;-52
2024/03/25 07:56:37;;;;;;;5.10;3.00;;;19.20;58.20;;;;;;5032584;28;20433;-49
2024/03/25 07:59:03;;;;;;;4.97;3.25;;;19.20;58.50;;;;;;5037593;28;20138;-52
2024/03/25 08:01:29;;;;;;;5.97;3.10;;;19.20;58.70;;;;;;5035041;28;20676;-55
2024/03/25 08:03:54;;;;;;;6.07;3.70;;;19.10;58.80;;;;;;5038834;28;20041;-51
2024/03/25 08:06:21;;;;;;;4.70;3.20;;;19.10;58.90;;;;;;5034078;28;20025;-55
2024/03/25 08:08:47;;;;;;;5.88;3.08;;;19.10;59.10;;;;;;5038676;28;20777;-53
2024/03/25 08:11:12;;;;;;;6.00;3.25;;;19.00;59.10;;;;;;5040997;28;20045;-50
2024/03/25 08:13:38;;;;;;;7.47;3.78;;;19.00;59.20;;;;;;5049241;28;20097;-52
2024/03/25 08:16:03;;;;;;;7.50;4.40;;;19.00;59.20;;;;;;5033669;28;20397;-53
2024/03/25 08:18:29;;;;;;;6.10;3.60;;;19.00;59.30;;;;;;5036284;28;20359;-51
2024/03/25 08:20:55;;;;;;;9.23;4.03;;;18.90;59.40;;;;;;5052358;28;20117;-54
2024/03/25 08:23:20;;;;;;;6.68;3.08;;;18.90;59.50;;;;;;5055100;28;20060;-54
2024/03/25 08:25:45;;;;;;;5.90;3.50;;;18.90;59.60;;;;;;5050491;28;20056;-53
2024/03/25 08:28:11;;;;;;;6.57;3.70;;;18.80;59.70;;;;;;5052726;28;20029;-53
2024/03/25 08:30:36;;;;;;;7.07;3.67;;;18.80;59.80;;;;;;5043443;28;20029;-51
2024/03/25 08:33:02;;;;;;;5.03;3.40;;;18.80;59.80;;;;;;5056271;28;20049;-55
2024/03/25 08:35:28;;;;;;;6.18;3.58;;;18.80;59.90;;;;;;5020585;28;20037;-54
2024/03/25 08:37:53;;;;;;;8.77;3.22;;;18.80;59.80;;;;;;5043781;28;20052;-52
2024/03/25 08:40:19;;;;;;;6.13;3.30;;;18.80;59.80;;;;;;5054513;28;20386;-51
2024/03/25 08:42:44;;;;;;;6.03;3.78;;;18.80;60.20;;;;;;5039220;28;20123;-51
2024/03/25 08:45:10;;;;;;;8.27;3.85;;;18.80;59.70;;;;;;5050248;28;20039;-53
2024/03/25 08:47:35;;;;;;;5.03;3.50;;;18.80;59.60;;;;;;5052303;28;21415;-61
2024/03/25 08:50:01;;;;;;;5.80;3.25;;;18.90;59.60;;;;;;5048726;28;20502;-53
2024/03/25 08:52:26;;;;;;;7.70;2.90;;;18.90;59.60;;;;;;5050256;28;20541;-55
2024/03/25 08:54:52;;;;;;;4.82;2.95;;;18.90;59.50;;;;;;5052097;28;20035;-52
2024/03/25 08:57:17;;;;;;;6.47;3.38;;;18.90;59.50;;;;;;5049369;28;20037;-56
2024/03/25 08:59:43;;;;;;;6.40;3.95;;;18.90;59.40;;;;;;5053872;28;20025;-52
2024/03/25 09:02:08;;;;;;;5.82;3.15;;;19.00;59.30;;;;;;5051468;28;20394;-53
2024/03/25 09:04:34;;;;;;;6.57;3.42;;;19.00;59.20;;;;;;5051279;28;20108;-55
2024/03/25 09:06:59;;;;;;;7.20;3.33;;;19.00;59.20;;;;;;5052658;28;20043;-53
2024/03/25 09:12:09;;;;;;;5.07;2.70;;;19.00;59.20;;;;;;5038971;28;20133;-53
2024/03/25 09:14:34;;;;;;;4.32;2.63;;;19.00;59.20;;;;;;5033381;28;20032;-54
2024/03/25 09:17:00;;;;;;;5.90;3.22;;;19.00;59.20;;;;;;5042174;28;20049;-53
2024/03/25 09:19:26;;;;;;;3.92;2.80;;;19.00;59.20;;;;;;5040113;28;20036;-55
2024/03/25 09:21:51;;;;;;;4.97;3.15;;;18.90;59.20;;;;;;5031575;28;20061;-54
2024/03/25 09:24:17;;;;;;;6.13;2.97;;;18.90;59.30;;;;;;5040979;28;20083;-53
2024/03/25 09:26:43;;;;;;;4.18;2.63;;;18.90;59.30;;;;;;5033992;28;20040;-54
2024/03/25 09:29:08;;;;;;;4.35;2.97;;;18.90;59.40;;;;;;5037184;28;20064;-52
2024/03/25 09:31:34;;;;;;;5.45;3.03;;;18.90;59.30;;;;;;5035493;28;20033;-53
2024/03/25 09:33:59;;;;;;;6.28;3.75;;;18.90;59.40;;;;;;5035617;28;20037;-54
2024/03/25 09:36:25;;;;;;;4.43;3.10;;;18.90;59.40;;;;;;5032192;28;20071;-52
2024/03/25 09:38:52;;;;;;;4.60;2.70;;;19.00;59.40;;;;;;5019078;28;20153;-53
2024/03/25 09:41:18;;;;;;;5.10;3.03;;;18.90;59.40;;;;;;5037717;28;20048;-52
2024/03/25 09:43:50;;;;;;;4.32;2.53;;;19.00;59.30;;;;;;5018314;28;20704;-54
2024/03/25 09:46:16;;;;;;;3.47;2.20;;;19.00;59.30;;;;;;5012277;28;20048;-53
2024/03/25 09:48:42;;;;;;;2.78;2.42;;;19.00;59.20;;;;;;5033680;28;20124;-54
2024/03/25 09:51:09;;;;;;;3.70;2.22;;;19.00;59.30;;;;;;5023344;28;20116;-52
2024/03/25 09:53:35;;;;;;;3.85;2.75;;;19.00;59.20;;;;;;5036068;28;20047;-52
2024/03/25 09:56:00;;;;;;;3.03;1.95;;;19.00;59.20;;;;;;5040802;28;20033;-52
2024/03/25 09:58:27;;;;;;;5.13;2.90;;;19.00;59.20;;;;;;5018968;28;20146;-52
2024/03/25 10:00:52;;;;;;;2.42;2.17;;;19.00;59.20;;;;;;5039189;28;20048;-53
2024/03/25 10:03:18;;;;;;;4.20;2.97;;;19.00;59.20;;;;;;5036452;28;20033;-52
2024/03/25 10:05:44;;;;;;;3.17;2.10;;;19.00;59.20;;;;;;5019557;28;20674;-53
2024/03/25 10:08:09;;;;;;;6.43;2.85;;;19.00;59.20;;;;;;5039281;28;20041;-52
2024/03/25 10:10:37;;;;;;;4.40;2.35;;;19.00;59.10;;;;;;5035494;28;20047;-55
2024/03/25 10:13:03;;;;;;;3.40;2.28;;;19.10;59.10;;;;;;5039933;28;20036;-53
2024/03/25 10:15:29;;;;;;;3.75;1.88;;;19.10;59.00;;;;;;5039766;28;20102;-52
2024/03/25 10:17:54;;;;;;;3.63;2.30;;;19.10;58.90;;;;;;5039458;28;20653;-54
2024/03/25 10:20:20;;;;;;;4.32;2.40;;;19.10;58.90;;;;;;5034263;28;21878;-53
2024/03/25 10:22:48;;;;;;;5.38;2.47;;;19.20;59.00;;;;;;5036707;28;20060;-50
2024/03/25 10:25:28;;;;;;;4.18;1.90;;;19.20;58.90;;;;;;5036536;28;20533;-54
2024/03/25 10:28:00;;;;;;;3.17;1.95;;;19.20;58.90;;;;;;5035069;28;20087;-53
2024/03/25 10:30:29;;;;;;;2.83;2.10;;;19.20;58.90;;;;;;5040061;28;20460;-52
2024/03/25 10:33:13;;;;;;;3.40;2.00;;;19.20;58.80;;;;;;5035894;28;20091;-55
2024/03/25 10:35:40;;;;;;;2.80;2.13;;;19.30;58.70;;;;;;5034708;28;20047;-54
2024/03/25 10:38:10;;;;;;;2.90;2.22;;;19.30;58.70;;;;;;5036796;28;20113;-59
2024/03/25 10:40:37;;;;;;;3.03;2.22;;;19.30;58.60;;;;;;5022877;22;20055;-59
2024/03/25 10:43:08;;;;;;;3.13;2.17;;;19.30;58.70;;;;;;5003375;28;20534;-59
2024/03/25 10:45:37;;;;;;;3.15;2.05;;;19.30;58.50;;;;;;4998970;28;20366;-58
2024/03/25 10:48:08;;;;;;;2.35;1.77;;;19.40;58.50;;;;;;4999206;28;21145;-54
2024/03/25 10:50:36;;;;;;;2.78;2.03;;;19.40;58.50;;;;;;4994812;28;20053;-51
2024/03/25 10:53:04;;;;;;;2.65;1.90;;;19.40;58.50;;;;;;5003772;28;20049;-55
2024/03/25 10:55:30;;;;;;;3.05;1.90;;;19.50;59.20;;;;;;4993322;28;20715;-55
2024/03/25 10:57:56;;;;;;;2.05;1.73;;;19.50;58.50;;;;;;4995870;28;20038;-56
2024/03/25 11:00:23;;;;;;;3.33;1.88;;;19.50;58.50;;;;;;4999911;28;20052;-54
2024/03/25 11:02:49;;;;;;;3.75;1.80;;;19.50;58.40;;;;;;4997832;28;20033;-54
2024/03/25 11:05:15;;;;;;;5.00;1.90;;;19.50;58.40;;;;;;4995801;28;20037;-50
2024/03/25 11:07:42;;;;;;;2.33;1.90;;;19.50;58.40;;;;;;4994642;28;20125;-54
2024/03/25 11:10:08;;;;;;;1.98;1.67;;;19.50;58.50;;;;;;4994971;28;20029;-54
2024/03/25 11:12:40;;;;;;;4.22;2.10;;;19.50;58.50;;;;;;4993375;28;20092;-55
2024/03/25 11:15:09;;;;;;;3.10;1.60;;;19.50;58.50;;;;;;4996532;28;20061;-53
2024/03/25 11:17:36;;;;;;;2.35;1.77;;;19.50;58.50;;;;;;4996683;28;20403;-54
2024/03/25 11:20:10;;;;;;;2.50;1.45;;;19.50;58.50;;;;;;4999275;28;20041;-53
2024/03/25 11:22:36;;;;;;;3.90;1.58;;;19.50;58.60;;;;;;5000720;28;20022;-54
2024/03/25 11:25:08;;;;;;;3.28;1.55;;;19.50;58.50;;;;;;4999992;28;20041;-51
2024/03/25 11:27:36;;;;;;;3.47;2.03;;;19.50;58.70;;;;;;4999519;28;20053;-53
2024/03/25 11:30:05;;;;;;;3.15;1.70;;;19.50;58.70;;;;;;5000298;28;20030;-53
2024/03/25 11:32:44;;;;;;;4.38;1.88;;;19.50;58.70;;;;;;4994235;28;20034;-53
2024/03/25 11:35:09;;;;;;;5.30;2.05;;;19.50;59.50;;;;;;4994841;28;21410;-53
2024/03/25 11:37:42;;;;;;;1.85;1.50;;;19.50;58.70;;;;;;5002185;28;20065;-54
2024/03/25 11:40:12;;;;;;;3.55;1.40;;;19.50;58.80;;;;;;4999725;28;20042;-52
2024/03/25 11:42:39;;;;;;;2.60;1.42;;;19.50;58.90;;;;;;4999950;28;20741;-51
2024/03/25 11:45:05;;;;;;;2.83;1.70;;;19.40;58.80;;;;;;4994833;28;20256;-54
2024/03/25 11:47:31;;;;;;;3.40;1.38;;;19.40;58.80;;;;;;5001380;28;20042;-53
2024/03/25 11:49:57;;;;;;;2.60;1.77;;;19.40;58.80;;;;;;4996540;28;20037;-53
2024/03/25 11:52:22;;;;;;;4.15;1.70;;;19.50;58.90;;;;;;5001758;28;20111;-55
2024/03/25 11:54:55;;;;;;;2.05;1.33;;;19.50;58.90;;;;;;5000847;28;20053;-54
2024/03/25 11:57:21;;;;;;;1.73;1.27;;;19.50;59.00;;;;;;5012362;28;20273;-55
2024/03/25 11:59:48;;;;;;;1.98;1.10;;;19.40;58.90;;;;;;4995604;28;20117;-52
2024/03/25 12:02:15;;;;;;;3.08;1.48;;;19.40;58.90;;;;;;5000696;28;20030;-53
2024/03/25 12:04:43;;;;;;;2.47;1.45;;;19.40;58.90;;;;;;4997679;28;20791;-54
2024/03/25 12:07:11;;;;;;;2.28;1.30;;;19.40;58.90;;;;;;5004279;28;20084;-51
2024/03/25 12:12:21;;;;;;;4.13;1.35;;;19.40;58.90;;;;;;5000040;28;21142;-52
2024/03/25 12:14:46;;;;;;;2.60;1.67;;;19.50;58.90;;;;;;5001215;28;20096;-52
2024/03/25 12:17:12;;;;;;;2.88;1.23;;;19.40;58.90;;;;;;4998863;28;20030;-53
2024/03/25 12:19:37;;;;;;;3.47;1.40;;;19.40;58.90;;;;;;4993940;28;21000;-52
2024/03/25 12:22:04;;;;;;;2.97;1.20;;;19.40;58.90;;;;;;4998480;28;20022;-52
2024/03/25 12:24:30;;;;;;;2.22;1.33;;;19.40;59.00;;;;;;5000424;28;20018;-57
2024/03/25 12:26:55;;;;;;;1.73;1.30;;;19.40;59.00;;;;;;4998820;28;20079;-56
2024/03/25 12:29:21;;;;;;;2.38;1.48;;;19.40;59.00;;;;;;5002692;28;20663;-53
2024/03/25 12:31:57;;;;;;;1.73;1.08;;;19.40;59.00;;;;;;5003214;28;20057;-57
2024/03/25 12:34:24;;;;;;;1.88;1.25;;;19.40;59.00;;;;;;4997184;28;20021;-55
2024/03/25 12:36:50;;;;;;;1.85;1.30;;;19.40;58.90;;;;;;5003477;28;20028;-56
2024/03/25 12:39:18;;;;;;;2.20;1.30;;;19.40;59.00;;;;;;5003586;28;20035;-54
2024/03/25 12:41:44;;;;;;;2.20;1.48;;;19.50;59.00;;;;;;4997456;28;20037;-55
2024/03/25 12:44:12;;;;;;;3.55;1.02;;;19.40;58.90;;;;;;4999199;28;20443;-58
2024/03/25 12:46:38;;;;;;;1.85;1.27;;;19.40;58.90;;;;;;4999281;28;20029;-58
2024/03/25 12:49:05;;;;;;;2.72;1.30;;;19.40;59.00;;;;;;4995109;28;20044;-58
2024/03/25 12:51:30;;;;;;;1.58;1.33;;;19.40;59.10;;;;;;4997147;28;20026;-53
2024/03/25 12:53:56;;;;;;;1.95;1.00;;;19.40;59.10;;;;;;5002032;28;20610;-57